Terminal Aerodrome Forecast
Issued by NWS Grand Forks, ND

Home | Current Version | Previous Version | Text Only | Print | Product List | Glossary Off
Versions: 1 2 3 4 5 6 7 8 9 10 11 12 13 14 15 16 17 18 19 20

000
FTUS43 KFGF 041726
TAFFAR
TAF
KFAR 041726Z 0418/0518 17013KT P6SM VCTS BKN080CB
      TEMPO 0418/0420 -TSRA BKN035CB
     FM042200 17012KT P6SM BKN100
     FM050600 VRB06KT P6SM BKN250
      TEMPO 0509/0512 5SM BR SCT012
     FM051500 VRB06KT P6SM BKN016=

USA.gov is the U.S. government's official web portal to all federal, state and local government web resources and services.